CAL4101 ZUUU-ZBAA
Flight info
| Callsign | CAL4101 |
|---|---|
| Flight time | N/A |
| Altitude | 41100 |
| Route | GURET9W GURET W233 AGULU W81 APIMI W275 NSH G212 AMVOG W61 NUDKU W56 DUGEB DUGEB5D |
| Aircraft | A359/H-SDE2E3GHIJ3J4J5LM1ORWXY/LB1D1 |
Departure
| Time | 2026-05-06 00:29 |
|---|---|
| Airport | Chengdu Shuangliu International Airport (ZUUU) |
Arrival
| Time | N/A |
|---|---|
| Airport | Beijing Capital International Airport (ZBAA) |
| Time | Latitude | Longitude | Altitude | Speed | Heading |
|---|---|---|---|---|---|
| 2026-05-06 00:17 | 30.58383 | 103.95598 | 1653 ft | 0 kts | 25° |
| 2026-05-06 00:21 | 30.58372 | 103.95592 | 1653 ft | 2 kts | 23° |
| 2026-05-06 00:21 | 30.58357 | 103.95585 | 1653 ft | 2 kts | 17° |
| 2026-05-06 00:22 | 30.58341 | 103.95582 | 1653 ft | 2 kts | 349° |
| 2026-05-06 00:22 | 30.58328 | 103.95592 | 1653 ft | 2 kts | 295° |
| 2026-05-06 00:22 | 30.58326 | 103.95597 | 1653 ft | 0 kts | 292° |
| 2026-05-06 00:23 | 30.58328 | 103.95591 | 1653 ft | 5 kts | 292° |
| 2026-05-06 00:23 | 30.58360 | 103.95491 | 1653 ft | 21 kts | 290° |
| 2026-05-06 00:24 | 30.58423 | 103.95289 | 1653 ft | 23 kts | 289° |
| 2026-05-06 00:24 | 30.58418 | 103.95196 | 1653 ft | 12 kts | 223° |
| 2026-05-06 00:24 | 30.58311 | 103.95136 | 1653 ft | 22 kts | 201° |
| 2026-05-06 00:24 | 30.58137 | 103.95054 | 1653 ft | 32 kts | 202° |
| 2026-05-06 00:25 | 30.57903 | 103.94945 | 1653 ft | 40 kts | 202° |
| 2026-05-06 00:25 | 30.57623 | 103.94813 | 1653 ft | 46 kts | 203° |
| 2026-05-06 00:25 | 30.57319 | 103.94670 | 1653 ft | 48 kts | 202° |
| 2026-05-06 00:25 | 30.57053 | 103.94546 | 1653 ft | 37 kts | 202° |
| 2026-05-06 00:26 | 30.56814 | 103.94433 | 1654 ft | 37 kts | 202° |
| 2026-05-06 00:26 | 30.56592 | 103.94329 | 1669 ft | 28 kts | 202° |
| 2026-05-06 00:26 | 30.56404 | 103.94241 | 1669 ft | 30 kts | 202° |
| 2026-05-06 00:26 | 30.56306 | 103.94181 | 1654 ft | 0 kts | 238° |
| 2026-05-06 00:27 | 30.56305 | 103.94176 | 1654 ft | 2 kts | 250° |
| 2026-05-06 00:27 | 30.56307 | 103.94140 | 1654 ft | 7 kts | 282° |
| 2026-05-06 00:27 | 30.56336 | 103.94061 | 1653 ft | 13 kts | 305° |
| 2026-05-06 00:27 | 30.56418 | 103.94038 | 1662 ft | 13 kts | 15° |
| 2026-05-06 00:28 | 30.56469 | 103.94061 | 1666 ft | 0 kts | 22° |
| 2026-05-06 00:28 | 30.56630 | 103.94137 | 1667 ft | 59 kts | 21° |
| 2026-05-06 00:28 | 30.57218 | 103.94407 | 1651 ft | 121 kts | 21° |
| 2026-05-06 00:28 | 30.58157 | 103.94842 | 1753 ft | 162 kts | 21° |
| 2026-05-06 00:29 | 30.59225 | 103.95328 | 2330 ft | 165 kts | 21° |
| 2026-05-06 00:29 | 30.60268 | 103.95815 | 3023 ft | 161 kts | 22° |
| 2026-05-06 00:29 | 30.61345 | 103.96319 | 3297 ft | 176 kts | 22° |
| 2026-05-06 00:29 | 30.62542 | 103.96880 | 3530 ft | 195 kts | 22° |
| 2026-05-06 00:30 | 30.63880 | 103.97503 | 3676 ft | 219 kts | 22° |
| 2026-05-06 00:30 | 30.65343 | 103.98183 | 3934 ft | 240 kts | 22° |
| 2026-05-06 00:30 | 30.66921 | 103.98992 | 4252 ft | 255 kts | 30° |
| 2026-05-06 00:30 | 30.68193 | 104.00441 | 4786 ft | 261 kts | 54° |
| 2026-05-06 00:31 | 30.69187 | 104.02228 | 5321 ft | 266 kts | 57° |
| 2026-05-06 00:31 | 30.70170 | 104.04069 | 5903 ft | 270 kts | 57° |
| 2026-05-06 00:31 | 30.71177 | 104.05938 | 6448 ft | 274 kts | 57° |
| 2026-05-06 00:31 | 30.72201 | 104.07822 | 6991 ft | 278 kts | 57° |
| 2026-05-06 00:32 | 30.73243 | 104.09730 | 7549 ft | 281 kts | 57° |
| 2026-05-06 00:32 | 30.74305 | 104.11661 | 8074 ft | 286 kts | 57° |
| 2026-05-06 00:32 | 30.75596 | 104.13438 | 8580 ft | 291 kts | 39° |
| 2026-05-06 00:32 | 30.76728 | 104.14273 | 8951 ft | 292 kts | 25° |
| 2026-05-06 00:33 | 30.79256 | 104.15528 | 9681 ft | 298 kts | 21° |
| 2026-05-06 00:33 | 30.80533 | 104.16124 | 10041 ft | 300 kts | 21° |
| 2026-05-06 00:33 | 30.82505 | 104.17052 | 10368 ft | 312 kts | 21° |
| 2026-05-06 00:33 | 30.84562 | 104.18031 | 10602 ft | 327 kts | 21° |
| 2026-05-06 00:34 | 30.86706 | 104.19060 | 10835 ft | 340 kts | 22° |
| 2026-05-06 00:34 | 30.88935 | 104.20133 | 11042 ft | 352 kts | 22° |
| 2026-05-06 00:34 | 30.91223 | 104.21285 | 11244 ft | 364 kts | 25° |
| 2026-05-06 00:34 | 30.93383 | 104.22889 | 11461 ft | 374 kts | 40° |
| 2026-05-06 00:35 | 30.95141 | 104.25136 | 11828 ft | 378 kts | 56° |
| 2026-05-06 00:35 | 30.96325 | 104.27870 | 12230 ft | 381 kts | 71° |
| 2026-05-06 00:35 | 30.96876 | 104.30884 | 12643 ft | 382 kts | 84° |
| 2026-05-06 00:35 | 30.97137 | 104.33978 | 13049 ft | 384 kts | 85° |
| 2026-05-06 00:36 | 30.97371 | 104.37086 | 13458 ft | 386 kts | 85° |
| 2026-05-06 00:36 | 30.97615 | 104.40209 | 13823 ft | 389 kts | 85° |
| 2026-05-06 00:36 | 30.97867 | 104.43360 | 14134 ft | 392 kts | 85° |
| 2026-05-06 00:36 | 30.98125 | 104.46530 | 14455 ft | 395 kts | 84° |
| 2026-05-06 00:37 | 30.98386 | 104.49724 | 14795 ft | 397 kts | 84° |
| 2026-05-06 00:37 | 30.98649 | 104.52939 | 15131 ft | 400 kts | 84° |
| 2026-05-06 00:37 | 30.98915 | 104.56170 | 15470 ft | 402 kts | 84° |
| 2026-05-06 00:37 | 30.99181 | 104.59422 | 15850 ft | 404 kts | 84° |
| 2026-05-06 00:38 | 30.99448 | 104.62684 | 16169 ft | 406 kts | 83° |
| 2026-05-06 00:38 | 30.99716 | 104.65974 | 16469 ft | 409 kts | 83° |
| 2026-05-06 00:38 | 30.99985 | 104.69285 | 16765 ft | 412 kts | 83° |
| 2026-05-06 00:38 | 31.00255 | 104.72624 | 17071 ft | 415 kts | 83° |
| 2026-05-06 00:39 | 31.00526 | 104.75977 | 17387 ft | 417 kts | 83° |
| 2026-05-06 00:39 | 31.00795 | 104.79312 | 17682 ft | 420 kts | 83° |
| 2026-05-06 00:39 | 31.01067 | 104.82712 | 17983 ft | 423 kts | 83° |
| 2026-05-06 00:39 | 31.01340 | 104.86132 | 18239 ft | 425 kts | 83° |
| 2026-05-06 00:40 | 31.01614 | 104.89571 | 18525 ft | 427 kts | 83° |
| 2026-05-06 00:40 | 31.01902 | 104.93019 | 18786 ft | 429 kts | 82° |
| 2026-05-06 00:40 | 31.02493 | 104.96425 | 19048 ft | 429 kts | 71° |
| 2026-05-06 00:40 | 31.03667 | 104.99605 | 19307 ft | 428 kts | 58° |
| 2026-05-06 00:41 | 31.05221 | 105.02571 | 19590 ft | 429 kts | 55° |
| 2026-05-06 00:41 | 31.06841 | 105.05498 | 19845 ft | 431 kts | 55° |
| 2026-05-06 00:41 | 31.08471 | 105.08446 | 20100 ft | 433 kts | 55° |
| 2026-05-06 00:41 | 31.10101 | 105.11411 | 20363 ft | 435 kts | 56° |
| 2026-05-06 00:42 | 31.11736 | 105.14398 | 20621 ft | 437 kts | 56° |
| 2026-05-06 00:42 | 31.13373 | 105.17394 | 20882 ft | 440 kts | 56° |
| 2026-05-06 00:42 | 31.15021 | 105.20415 | 21131 ft | 442 kts | 56° |
| 2026-05-06 00:42 | 31.16675 | 105.23450 | 21397 ft | 444 kts | 56° |
| 2026-05-06 00:43 | 31.18335 | 105.26502 | 21648 ft | 446 kts | 56° |
| 2026-05-06 00:43 | 31.20002 | 105.29568 | 21912 ft | 448 kts | 56° |
| 2026-05-06 00:43 | 31.21676 | 105.32651 | 22152 ft | 450 kts | 56° |
| 2026-05-06 00:43 | 31.23355 | 105.35746 | 22380 ft | 452 kts | 56° |
| 2026-05-06 00:44 | 31.25061 | 105.38840 | 22640 ft | 454 kts | 55° |
| 2026-05-06 00:44 | 31.26819 | 105.41921 | 22872 ft | 456 kts | 54° |
| 2026-05-06 00:44 | 31.28600 | 105.44994 | 23120 ft | 458 kts | 54° |
| 2026-05-06 00:44 | 31.30394 | 105.48082 | 23351 ft | 460 kts | 54° |
| 2026-05-06 00:45 | 31.32193 | 105.51189 | 23521 ft | 462 kts | 55° |
| 2026-05-06 00:45 | 31.33993 | 105.54316 | 23740 ft | 464 kts | 55° |
| 2026-05-06 00:45 | 31.35795 | 105.57458 | 23933 ft | 466 kts | 55° |
| 2026-05-06 00:45 | 31.37602 | 105.60622 | 24116 ft | 468 kts | 55° |
| 2026-05-06 00:46 | 31.39413 | 105.63795 | 24310 ft | 470 kts | 55° |
| 2026-05-06 00:46 | 31.41225 | 105.66985 | 24512 ft | 471 kts | 55° |
| 2026-05-06 00:46 | 31.43045 | 105.70187 | 24687 ft | 473 kts | 55° |
| 2026-05-06 00:46 | 31.44872 | 105.73398 | 24901 ft | 475 kts | 55° |
| 2026-05-06 00:47 | 31.46705 | 105.76624 | 25075 ft | 477 kts | 55° |
| 2026-05-06 00:47 | 31.48544 | 105.79859 | 25275 ft | 478 kts | 55° |
| 2026-05-06 00:47 | 31.50392 | 105.83111 | 25464 ft | 480 kts | 55° |
| 2026-05-06 00:47 | 31.52246 | 105.86381 | 25661 ft | 482 kts | 55° |
| 2026-05-06 00:48 | 31.54101 | 105.89655 | 25882 ft | 483 kts | 55° |
| 2026-05-06 00:48 | 31.55963 | 105.92945 | 26091 ft | 485 kts | 55° |
| 2026-05-06 00:48 | 31.57829 | 105.96245 | 26292 ft | 487 kts | 55° |
| 2026-05-06 00:48 | 31.59701 | 105.99561 | 26493 ft | 488 kts | 55° |
| 2026-05-06 00:49 | 31.61581 | 106.02893 | 26717 ft | 490 kts | 55° |
| 2026-05-06 00:49 | 31.63462 | 106.06227 | 26932 ft | 491 kts | 55° |
| 2026-05-06 00:49 | 31.65349 | 106.09577 | 27141 ft | 493 kts | 55° |
| 2026-05-06 00:49 | 31.67246 | 106.12947 | 27350 ft | 495 kts | 55° |
| 2026-05-06 00:50 | 31.69147 | 106.16326 | 27563 ft | 497 kts | 55° |
| 2026-05-06 00:50 | 31.71053 | 106.19718 | 27784 ft | 498 kts | 55° |
| 2026-05-06 00:50 | 31.72947 | 106.23092 | 27997 ft | 500 kts | 55° |
| 2026-05-06 00:50 | 31.75669 | 106.27945 | 28346 ft | 503 kts | 55° |
| 2026-05-06 00:51 | 31.79531 | 106.34842 | 28795 ft | 507 kts | 55° |
| 2026-05-06 00:51 | 31.83475 | 106.41895 | 29260 ft | 510 kts | 55° |
| 2026-05-06 00:51 | 31.87329 | 106.48805 | 29739 ft | 514 kts | 55° |
| 2026-05-06 00:51 | 31.91259 | 106.55861 | 30147 ft | 518 kts | 55° |
| 2026-05-06 00:52 | 31.94770 | 106.62177 | 30530 ft | 520 kts | 55° |
| 2026-05-06 00:52 | 31.96756 | 106.65752 | 30708 ft | 522 kts | 55° |
| 2026-05-06 00:52 | 31.98746 | 106.69342 | 30911 ft | 524 kts | 55° |
| 2026-05-06 00:52 | 32.00738 | 106.72939 | 31173 ft | 523 kts | 55° |
| 2026-05-06 00:53 | 32.02731 | 106.76537 | 31315 ft | 527 kts | 55° |
| 2026-05-06 00:53 | 32.04738 | 106.80163 | 31503 ft | 529 kts | 55° |
| 2026-05-06 00:53 | 32.06748 | 106.83798 | 31727 ft | 530 kts | 55° |
| 2026-05-06 00:53 | 32.08759 | 106.87439 | 31933 ft | 531 kts | 55° |
| 2026-05-06 00:54 | 32.10788 | 106.91118 | 32145 ft | 533 kts | 55° |
| 2026-05-06 00:54 | 32.12811 | 106.94789 | 32346 ft | 534 kts | 55° |
| 2026-05-06 00:54 | 32.14832 | 106.98462 | 32622 ft | 534 kts | 55° |
| 2026-05-06 00:54 | 32.16852 | 107.02137 | 32903 ft | 533 kts | 55° |
| 2026-05-06 00:55 | 32.18872 | 107.05813 | 33234 ft | 533 kts | 55° |
| 2026-05-06 00:55 | 32.20883 | 107.09477 | 33555 ft | 532 kts | 55° |
| 2026-05-06 00:55 | 32.22891 | 107.13139 | 33858 ft | 531 kts | 55° |
| 2026-05-06 00:55 | 32.24879 | 107.16815 | 34079 ft | 532 kts | 58° |
| 2026-05-06 00:56 | 32.26560 | 107.20719 | 34362 ft | 533 kts | 66° |
| 2026-05-06 00:56 | 32.27931 | 107.24731 | 34629 ft | 534 kts | 68° |
| 2026-05-06 00:56 | 32.29243 | 107.28832 | 34875 ft | 534 kts | 69° |
| 2026-05-06 00:56 | 32.30531 | 107.33009 | 35177 ft | 533 kts | 69° |
| 2026-05-06 00:57 | 32.31785 | 107.37139 | 35398 ft | 535 kts | 69° |
| 2026-05-06 00:57 | 32.33021 | 107.41223 | 35635 ft | 535 kts | 69° |
| 2026-05-06 00:57 | 32.34277 | 107.45366 | 35907 ft | 535 kts | 69° |
| 2026-05-06 00:57 | 32.35536 | 107.49503 | 36195 ft | 535 kts | 69° |
| 2026-05-06 00:58 | 32.36798 | 107.53643 | 36456 ft | 535 kts | 69° |
| 2026-05-06 00:58 | 32.38061 | 107.57781 | 36767 ft | 534 kts | 69° |
| 2026-05-06 00:58 | 32.39323 | 107.61913 | 37021 ft | 535 kts | 69° |
| 2026-05-06 00:58 | 32.40590 | 107.66062 | 37238 ft | 536 kts | 69° |
| 2026-05-06 00:59 | 32.41858 | 107.70221 | 37453 ft | 538 kts | 69° |
| 2026-05-06 00:59 | 32.43123 | 107.74381 | 37743 ft | 537 kts | 69° |
| 2026-05-06 00:59 | 32.44386 | 107.78539 | 37804 ft | 536 kts | 69° |
| 2026-05-06 01:00 | 32.46898 | 107.86837 | 37825 ft | 535 kts | 69° |
| 2026-05-06 01:00 | 32.49775 | 107.94940 | 37828 ft | 532 kts | 57° |
| 2026-05-06 01:00 | 32.51870 | 107.98518 | 37819 ft | 527 kts | 46° |
| 2026-05-06 01:01 | 32.54428 | 108.01581 | 37817 ft | 519 kts | 35° |
| 2026-05-06 01:01 | 32.57362 | 108.04020 | 37833 ft | 514 kts | 24° |
| 2026-05-06 01:01 | 32.60574 | 108.05786 | 37821 ft | 505 kts | 13° |
| 2026-05-06 01:02 | 32.67245 | 108.08308 | 37814 ft | 503 kts | 11° |
| 2026-05-06 01:02 | 32.73961 | 108.10606 | 37807 ft | 501 kts | 10° |
| 2026-05-06 01:03 | 32.80655 | 108.12916 | 37813 ft | 501 kts | 11° |
| 2026-05-06 01:03 | 32.87329 | 108.15267 | 37804 ft | 500 kts | 11° |
| 2026-05-06 01:04 | 32.93989 | 108.17635 | 37804 ft | 499 kts | 11° |
| 2026-05-06 01:04 | 33.00637 | 108.20004 | 37796 ft | 499 kts | 11° |
| 2026-05-06 01:05 | 33.07288 | 108.22376 | 37802 ft | 500 kts | 11° |
| 2026-05-06 01:05 | 33.13949 | 108.24754 | 37811 ft | 500 kts | 11° |
| 2026-05-06 01:06 | 33.20613 | 108.27137 | 37812 ft | 500 kts | 11° |
| 2026-05-06 01:06 | 33.27277 | 108.29527 | 37822 ft | 500 kts | 11° |
| 2026-05-06 01:07 | 33.33835 | 108.32404 | 37834 ft | 507 kts | 19° |
| 2026-05-06 01:07 | 33.40210 | 108.36069 | 37842 ft | 509 kts | 21° |
| 2026-05-06 01:08 | 33.46519 | 108.39836 | 37847 ft | 511 kts | 21° |
| 2026-05-06 01:08 | 33.52881 | 108.43650 | 37847 ft | 511 kts | 21° |
| 2026-05-06 01:09 | 33.59250 | 108.47459 | 37861 ft | 512 kts | 21° |
| 2026-05-06 01:09 | 33.65627 | 108.51267 | 37860 ft | 513 kts | 21° |
| 2026-05-06 01:10 | 33.72025 | 108.55095 | 37860 ft | 515 kts | 21° |
| 2026-05-06 01:10 | 33.78438 | 108.58935 | 37851 ft | 515 kts | 21° |
| 2026-05-06 01:11 | 33.84852 | 108.62788 | 37854 ft | 516 kts | 21° |
| 2026-05-06 01:11 | 33.91272 | 108.66647 | 37849 ft | 516 kts | 21° |
| 2026-05-06 01:12 | 33.97696 | 108.70522 | 37839 ft | 517 kts | 21° |
| 2026-05-06 01:12 | 34.04131 | 108.74404 | 37827 ft | 518 kts | 21° |
| 2026-05-06 01:13 | 34.10578 | 108.78301 | 37822 ft | 518 kts | 21° |
| 2026-05-06 01:13 | 34.17024 | 108.82203 | 37821 ft | 518 kts | 21° |
| 2026-05-06 01:14 | 34.27104 | 108.86133 | 37823 ft | 503 kts | 3° |
| 2026-05-06 01:14 | 34.34018 | 108.87348 | 37826 ft | 502 kts | 1° |
| 2026-05-06 01:15 | 34.40943 | 108.88436 | 37830 ft | 502 kts | 1° |
| 2026-05-06 01:15 | 34.47868 | 108.89537 | 37832 ft | 502 kts | 1° |
| 2026-05-06 01:16 | 34.54803 | 108.90666 | 37823 ft | 503 kts | 1° |
| 2026-05-06 01:16 | 34.61712 | 108.92227 | 37816 ft | 510 kts | 9° |
| 2026-05-06 01:17 | 34.68549 | 108.94581 | 37814 ft | 511 kts | 11° |
| 2026-05-06 01:17 | 34.75359 | 108.97059 | 37796 ft | 511 kts | 11° |
| 2026-05-06 01:18 | 34.82171 | 108.99548 | 37805 ft | 511 kts | 11° |
| 2026-05-06 01:18 | 34.88962 | 109.02147 | 37809 ft | 512 kts | 12° |
| 2026-05-06 01:19 | 34.94593 | 109.04406 | 37806 ft | 512 kts | 12° |
| 2026-05-06 01:19 | 35.01366 | 109.07119 | 37820 ft | 512 kts | 12° |
| 2026-05-06 01:20 | 35.08143 | 109.09813 | 37824 ft | 512 kts | 12° |
| 2026-05-06 01:20 | 35.14921 | 109.12498 | 37823 ft | 512 kts | 12° |
| 2026-05-06 01:21 | 35.21697 | 109.15187 | 37826 ft | 512 kts | 12° |
| 2026-05-06 01:21 | 35.28475 | 109.17882 | 37830 ft | 512 kts | 12° |
| 2026-05-06 01:22 | 35.35261 | 109.20585 | 37835 ft | 513 kts | 12° |
| 2026-05-06 01:22 | 35.42051 | 109.23295 | 37836 ft | 514 kts | 12° |
| 2026-05-06 01:23 | 35.48856 | 109.26015 | 37834 ft | 515 kts | 12° |
| 2026-05-06 01:23 | 35.55670 | 109.28745 | 37834 ft | 516 kts | 12° |
| 2026-05-06 01:24 | 35.62495 | 109.31485 | 37831 ft | 516 kts | 12° |
| 2026-05-06 01:24 | 35.69290 | 109.34218 | 37833 ft | 517 kts | 12° |
| 2026-05-06 01:25 | 35.75944 | 109.37755 | 37828 ft | 530 kts | 27° |
| 2026-05-06 01:25 | 35.78918 | 109.40474 | 37823 ft | 537 kts | 38° |
| 2026-05-06 01:25 | 35.81489 | 109.43846 | 37834 ft | 542 kts | 48° |
| 2026-05-06 01:26 | 35.86040 | 109.51286 | 37825 ft | 545 kts | 51° |
| 2026-05-06 01:26 | 35.90436 | 109.58927 | 37824 ft | 546 kts | 52° |
| 2026-05-06 01:27 | 35.94842 | 109.66565 | 37823 ft | 546 kts | 51° |
| 2026-05-06 01:27 | 35.99279 | 109.74185 | 37823 ft | 546 kts | 51° |
| 2026-05-06 01:28 | 36.03721 | 109.81795 | 37820 ft | 546 kts | 51° |
| 2026-05-06 01:28 | 36.08161 | 109.89420 | 37814 ft | 547 kts | 51° |
| 2026-05-06 01:29 | 36.12600 | 109.97061 | 37812 ft | 546 kts | 51° |
| 2026-05-06 01:29 | 36.17027 | 110.04702 | 37808 ft | 546 kts | 51° |
| 2026-05-06 01:30 | 36.21450 | 110.12348 | 37813 ft | 546 kts | 50° |
| 2026-05-06 01:30 | 36.25864 | 110.20011 | 37805 ft | 547 kts | 51° |
| 2026-05-06 01:31 | 36.30272 | 110.27695 | 37801 ft | 547 kts | 51° |
| 2026-05-06 01:31 | 36.34674 | 110.35383 | 37801 ft | 546 kts | 51° |
| 2026-05-06 01:32 | 36.39071 | 110.43070 | 37802 ft | 546 kts | 51° |
| 2026-05-06 01:32 | 36.43431 | 110.50713 | 37801 ft | 547 kts | 51° |
| 2026-05-06 01:33 | 36.47827 | 110.58433 | 37808 ft | 547 kts | 51° |
| 2026-05-06 01:33 | 36.52218 | 110.66162 | 37808 ft | 548 kts | 51° |
| 2026-05-06 01:34 | 36.56612 | 110.73915 | 37813 ft | 549 kts | 51° |
| 2026-05-06 01:34 | 36.61003 | 110.81685 | 37802 ft | 549 kts | 51° |
| 2026-05-06 01:35 | 36.65390 | 110.89465 | 37807 ft | 549 kts | 51° |
| 2026-05-06 01:35 | 36.69779 | 110.97260 | 37812 ft | 549 kts | 52° |
| 2026-05-06 01:36 | 36.74630 | 111.04557 | 37812 ft | 545 kts | 44° |
| 2026-05-06 01:36 | 36.79363 | 111.11159 | 37816 ft | 545 kts | 43° |
| 2026-05-06 01:37 | 36.84172 | 111.17800 | 37811 ft | 545 kts | 43° |
| 2026-05-06 01:37 | 36.89249 | 111.24837 | 37812 ft | 545 kts | 43° |
| 2026-05-06 01:38 | 36.94314 | 111.31894 | 37810 ft | 545 kts | 43° |
| 2026-05-06 01:38 | 36.99341 | 111.38919 | 37806 ft | 545 kts | 43° |
| 2026-05-06 01:39 | 37.04422 | 111.46036 | 37807 ft | 545 kts | 43° |
| 2026-05-06 01:39 | 37.09437 | 111.53075 | 37803 ft | 546 kts | 43° |
| 2026-05-06 01:40 | 37.14492 | 111.60184 | 37808 ft | 547 kts | 44° |
| 2026-05-06 01:40 | 37.19549 | 111.67311 | 37802 ft | 547 kts | 44° |
| 2026-05-06 01:41 | 37.24564 | 111.74492 | 37806 ft | 549 kts | 47° |
| 2026-05-06 01:41 | 37.28585 | 111.82702 | 37803 ft | 555 kts | 59° |
| 2026-05-06 01:42 | 37.32149 | 111.91310 | 37807 ft | 556 kts | 60° |
| 2026-05-06 01:42 | 37.35639 | 111.99977 | 37800 ft | 556 kts | 60° |
| 2026-05-06 01:43 | 37.39145 | 112.08636 | 37797 ft | 556 kts | 60° |
| 2026-05-06 01:43 | 37.42665 | 112.17299 | 37805 ft | 556 kts | 60° |
| 2026-05-06 01:44 | 37.46182 | 112.25965 | 37807 ft | 556 kts | 60° |
| 2026-05-06 01:44 | 37.49701 | 112.34660 | 37812 ft | 561 kts | 60° |
| 2026-05-06 01:45 | 37.53268 | 112.43498 | 37816 ft | 570 kts | 60° |
| 2026-05-06 01:45 | 37.56864 | 112.52438 | 37822 ft | 573 kts | 60° |
| 2026-05-06 01:46 | 37.60458 | 112.61398 | 37826 ft | 572 kts | 60° |
| 2026-05-06 01:46 | 37.64046 | 112.70361 | 37832 ft | 572 kts | 60° |
| 2026-05-06 01:47 | 37.67633 | 112.79324 | 37828 ft | 572 kts | 59° |
| 2026-05-06 01:47 | 37.71215 | 112.88293 | 37827 ft | 572 kts | 59° |
| 2026-05-06 01:48 | 37.74764 | 112.97209 | 37822 ft | 572 kts | 59° |
| 2026-05-06 01:48 | 37.78326 | 113.06199 | 37812 ft | 572 kts | 60° |
| 2026-05-06 01:49 | 37.81887 | 113.15211 | 37808 ft | 573 kts | 59° |